createdAt,value
2016-10-05T00:00:09.429Z,76.1
2016-10-05T00:01:09.381Z,76.1
2016-10-05T00:02:09.040Z,76.1
2016-10-05T00:03:09.312Z,76.1
2016-10-05T00:04:09.269Z,76.76
2016-10-05T00:05:09.230Z,76.67
2016-10-05T00:06:09.194Z,76.48
2016-10-05T00:07:09.156Z,76.39
2016-10-05T00:08:08.818Z,76.29
2016-10-05T00:09:09.088Z,76.29
2016-10-05T00:10:09.044Z,76.39
2016-10-05T00:11:09.008Z,76.39
2016-10-05T00:12:08.971Z,76.39
2016-10-05T00:13:08.933Z,76.57
2016-10-05T00:14:08.898Z,76.86
2016-10-05T00:15:08.857Z,76.96
2016-10-05T00:16:08.819Z,77.15
2016-10-05T00:17:08.781Z,76.76
2016-10-05T00:18:08.745Z,77.24
2016-10-05T00:19:08.708Z,77.24
2016-10-05T00:20:08.671Z,77.53
2016-10-05T00:21:08.633Z,77.62
2016-10-05T00:22:08.590Z,77.24
2016-10-05T00:23:08.556Z,77.72
2016-10-05T00:24:08.521Z,77.62
2016-10-05T00:25:08.180Z,77.43
2016-10-05T00:26:08.143Z,78.1
2016-10-05T00:27:08.402Z,78.1
2016-10-05T00:28:08.367Z,78.1
2016-10-05T00:29:08.332Z,78.29
2016-10-05T00:30:08.295Z,78.67
2016-10-05T00:31:07.953Z,78.77
2016-10-05T00:32:08.220Z,79.24
2016-10-05T00:33:07.880Z,78.86
2016-10-05T00:34:08.145Z,78.96
2016-10-05T00:35:08.106Z,79.05
2016-10-05T00:36:08.068Z,78.96
2016-10-05T00:37:07.729Z,79.24
2016-10-05T00:38:07.994Z,79.05
2016-10-05T00:39:07.959Z,78.96
2016-10-05T00:40:07.918Z,79.05
2016-10-05T00:41:07.880Z,79.05
2016-10-05T00:42:07.543Z,79.05
2016-10-05T00:43:07.807Z,79.43
2016-10-05T00:44:07.771Z,79.43
2016-10-05T00:45:07.428Z,79.43
2016-10-05T00:46:07.694Z,79.33
2016-10-05T00:47:07.656Z,79.33
2016-10-05T00:48:07.619Z,79.62
2016-10-05T00:49:07.276Z,79.14
2016-10-05T00:50:07.545Z,79.24
2016-10-05T00:51:07.505Z,79.43
2016-10-05T00:52:07.466Z,79.72
2016-10-05T00:53:07.128Z,79.52
2016-10-05T00:54:07.398Z,79.72
2016-10-05T00:55:07.353Z,79.52
2016-10-05T00:56:07.319Z,79.52
2016-10-05T00:57:07.282Z,79.52
2016-10-05T00:58:07.241Z,79.72
2016-10-05T00:59:06.902Z,80
2016-10-05T01:00:07.164Z,79.52
2016-10-05T01:01:07.134Z,79.86
2016-10-05T01:02:07.093Z,80
2016-10-05T01:03:07.053Z,79.91
2016-10-05T01:04:07.014Z,80.19
2016-10-05T01:05:06.677Z,80
2016-10-05T01:06:06.638Z,80.05
2016-10-05T01:07:06.903Z,79.96
2016-10-05T01:08:06.870Z,79.86
2016-10-05T01:09:06.826Z,80.05
2016-10-05T01:10:06.792Z,80.44
2016-10-05T01:11:06.450Z,80.34
2016-10-05T01:12:06.716Z,80.05
2016-10-05T01:13:06.675Z,80.34
2016-10-05T01:14:06.640Z,80.24
2016-10-05T01:15:06.603Z,80.44
2016-10-05T01:16:06.565Z,80.53
2016-10-05T01:17:06.525Z,80.44
2016-10-05T01:18:06.487Z,80.15
2016-10-05T01:19:06.452Z,80
2016-10-05T01:20:06.412Z,80.05
2016-10-05T01:21:06.376Z,80.53
2016-10-05T01:22:06.036Z,80.24
2016-10-05T01:23:06.296Z,80.15
2016-10-05T01:24:05.958Z,80.53
2016-10-05T01:25:06.227Z,81.01
2016-10-05T01:26:06.188Z,80.63
2016-10-05T01:27:06.150Z,81.1
2016-10-05T01:28:06.111Z,81.01
2016-10-05T01:29:06.076Z,81.1
2016-10-05T01:30:06.035Z,81.1
2016-10-05T01:31:05.998Z,80.82
2016-10-05T01:32:05.962Z,80.91
2016-10-05T01:33:05.924Z,81.1
2016-10-05T01:34:05.885Z,80.91
2016-10-05T01:35:05.850Z,81.1
2016-10-05T01:36:05.809Z,81.58
2016-10-05T01:37:05.779Z,81.48
2016-10-05T01:38:05.734Z,81.1
2016-10-05T01:39:05.698Z,81.77
2016-10-05T01:40:05.658Z,81.96
2016-10-05T01:41:05.323Z,81.58
2016-10-05T01:42:05.583Z,81.86
2016-10-05T01:43:05.243Z,81.96
2016-10-05T01:44:05.508Z,81.77
2016-10-05T01:45:05.470Z,81.86
2016-10-05T01:46:05.432Z,81.67
2016-10-05T01:47:05.090Z,82.05
2016-10-05T01:48:05.358Z,81.86
2016-10-05T01:49:05.316Z,81.58
2016-10-05T01:50:05.279Z,81.58
2016-10-05T01:51:04.939Z,82.05
2016-10-05T01:52:05.203Z,83
2016-10-05T01:53:05.167Z,82.71
2016-10-05T01:54:05.129Z,82.34
2016-10-05T01:55:05.093Z,82.34
2016-10-05T01:56:05.052Z,82.53
2016-10-05T01:57:05.016Z,82.53
2016-10-05T01:58:04.981Z,82.34
2016-10-05T01:59:04.940Z,83
2016-10-05T02:00:04.899Z,83
2016-10-05T02:01:04.863Z,82.62
2016-10-05T02:02:04.522Z,82.34
2016-10-05T02:03:04.789Z,82.43
2016-10-05T02:04:04.748Z,82.62
2016-10-05T02:05:04.711Z,83
2016-10-05T02:06:04.675Z,82.71
2016-10-05T02:07:04.637Z,82.24
2016-10-05T02:08:04.597Z,82.62
2016-10-05T02:09:04.258Z,82.62
2016-10-05T02:10:04.519Z,82.68
2016-10-05T02:11:04.488Z,82.43
2016-10-05T02:12:04.448Z,82.24
2016-10-05T02:13:04.408Z,82.43
2016-10-05T02:14:04.372Z,82.68
2016-10-05T02:15:04.032Z,82.58
2016-10-05T02:16:04.297Z,82.58
2016-10-05T02:17:04.273Z,82.58
2016-10-05T02:18:04.220Z,82.58
2016-10-05T02:19:04.181Z,82.77
2016-10-05T02:20:04.146Z,82.77
2016-10-05T02:21:04.111Z,82.49
2016-10-05T02:22:03.765Z,82.49
2016-10-05T02:23:04.033Z,82.71
2016-10-05T02:24:03.694Z,82.01
2016-10-05T02:25:03.951Z,82.29
2016-10-05T02:26:03.613Z,82.68
2016-10-05T02:27:03.879Z,82.39
2016-10-05T02:28:03.536Z,82.1
2016-10-05T02:29:03.801Z,82.01
2016-10-05T02:30:04.564Z,82.1
2016-10-05T02:31:03.890Z,82.2
2016-10-05T02:32:03.689Z,82.1
2016-10-05T02:33:03.363Z,82.1
2016-10-05T02:34:03.615Z,82.1
2016-10-05T02:35:03.271Z,82.01
2016-10-05T02:36:03.234Z,81.92
2016-10-05T02:37:03.198Z,81.82
2016-10-05T02:38:03.458Z,82.01
2016-10-05T02:39:03.422Z,81.63
2016-10-05T02:40:03.386Z,82.01
2016-10-05T02:41:03.044Z,81.73
2016-10-05T02:42:03.310Z,82.29
2016-10-05T02:43:03.268Z,81.73
2016-10-05T02:44:03.233Z,81.54
2016-10-05T02:45:03.205Z,81.54
2016-10-05T02:46:03.155Z,81.73
2016-10-05T02:47:03.121Z,82.1
2016-10-05T02:48:03.079Z,82.01
2016-10-05T02:49:03.043Z,81.92
2016-10-05T02:50:03.003Z,81.92
2016-10-05T02:51:02.665Z,81.63
2016-10-05T02:52:02.929Z,82.01
2016-10-05T02:53:02.889Z,82.01
2016-10-05T02:54:02.850Z,81.73
2016-10-05T02:55:02.814Z,81.73
2016-10-05T02:56:02.783Z,81.92
2016-10-05T02:57:02.435Z,81.82
2016-10-05T02:58:02.696Z,81.54
2016-10-05T02:59:02.356Z,81.92
2016-10-05T03:00:02.628Z,82.01
2016-10-05T03:01:02.586Z,81.54
2016-10-05T03:02:02.543Z,81.73
2016-10-05T03:03:02.514Z,81.82
2016-10-05T03:04:02.470Z,81.16
2016-10-05T03:05:02.433Z,81.35
2016-10-05T03:06:02.395Z,81.35
2016-10-05T03:07:02.352Z,81.44
2016-10-05T03:08:02.315Z,81.54
2016-10-05T03:09:02.279Z,81.63
2016-10-05T03:10:02.239Z,81.16
2016-10-05T03:11:02.205Z,82.1
2016-10-05T03:12:02.164Z,81.82
2016-10-05T03:13:02.127Z,81.44
2016-10-05T03:14:02.088Z,82.01
2016-10-05T03:15:02.051Z,81.73
2016-10-05T03:16:02.017Z,81.92
2016-10-05T03:17:01.972Z,82.01
2016-10-05T03:18:01.985Z,81.54
2016-10-05T03:19:01.595Z,81.82
2016-10-05T03:20:01.862Z,81.92
2016-10-05T03:21:01.820Z,81.82
2016-10-05T03:22:01.785Z,81.73
2016-10-05T03:23:01.749Z,81.54
2016-10-05T03:24:01.707Z,81.73
2016-10-05T03:25:01.675Z,82.01
2016-10-05T03:26:01.630Z,81.73
2016-10-05T03:27:01.592Z,82.01
2016-10-05T03:28:01.565Z,81.82
2016-10-05T03:29:01.512Z,82.1
2016-10-05T03:30:01.174Z,81.82
2016-10-05T03:31:01.439Z,81.82
2016-10-05T03:32:01.398Z,81.92
2016-10-05T03:33:01.367Z,82.2
2016-10-05T03:34:01.326Z,82.96
2016-10-05T03:35:01.289Z,82.35
2016-10-05T03:36:00.945Z,82.58
2016-10-05T03:37:01.209Z,82.29
2016-10-05T03:38:01.172Z,82.54
2016-10-05T03:39:01.135Z,82.49
2016-10-05T03:40:01.096Z,82.58
2016-10-05T03:41:00.758Z,82.87
2016-10-05T03:42:01.015Z,82.92
2016-10-05T03:43:00.979Z,82.2
2016-10-05T03:44:00.938Z,82.1
2016-10-05T03:45:00.901Z,82.07
2016-10-05T03:46:00.866Z,82.58
2016-10-05T03:47:00.840Z,82.68
2016-10-05T03:48:00.785Z,82.26
2016-10-05T03:49:00.749Z,82.87
2016-10-05T03:50:00.711Z,82.45
2016-10-05T03:51:00.673Z,82.96
2016-10-05T03:52:00.330Z,81.97
2016-10-05T03:53:00.594Z,81.97
2016-10-05T03:54:00.555Z,82.1
2016-10-05T03:55:00.215Z,81.97
2016-10-05T03:56:00.480Z,81.97
2016-10-05T03:57:00.441Z,82.01
2016-10-05T03:58:00.402Z,82.07
2016-10-05T03:59:00.363Z,82.2
2016-10-05T04:00:00.326Z,82.26
2016-10-05T04:01:00.287Z,82.16
2016-10-05T04:02:00.250Z,81.97
2016-10-05T04:03:00.211Z,81.97
2016-10-05T04:04:00.174Z,82.07
2016-10-05T04:05:00.134Z,82.16
2016-10-05T04:06:00.097Z,81.97
2016-10-05T04:07:00.055Z,82.16
2016-10-05T04:08:00.020Z,82.16
2016-10-05T04:08:59.980Z,81.68
2016-10-05T04:09:59.639Z,82.07
2016-10-05T04:10:59.600Z,81.87
2016-10-05T04:11:59.861Z,82.16
2016-10-05T04:12:59.827Z,82.07
2016-10-05T04:13:59.788Z,82.92
2016-10-05T04:14:59.749Z,82.16
2016-10-05T04:15:59.409Z,81.97
2016-10-05T04:16:59.668Z,82.16
2016-10-05T04:17:59.333Z,82.54
2016-10-05T04:18:59.295Z,81.49
2016-10-05T04:19:59.554Z,81.49
2016-10-05T04:20:59.520Z,82.07
2016-10-05T04:21:59.481Z,82.07
2016-10-05T04:22:59.439Z,82.07
2016-10-05T04:23:59.403Z,82.16
2016-10-05T04:24:59.364Z,82.26
2016-10-05T04:25:59.324Z,82.54
2016-10-05T04:26:58.984Z,82.35
2016-10-05T04:27:59.250Z,82.64
2016-10-05T04:28:59.225Z,82.73
2016-10-05T04:29:59.171Z,82.54
2016-10-05T04:30:59.148Z,82.45
2016-10-05T04:31:59.092Z,82.82
2016-10-05T04:32:59.055Z,82.64
2016-10-05T04:33:59.016Z,82.73
2016-10-05T04:34:58.979Z,82.35
2016-10-05T04:35:58.940Z,82.45
2016-10-05T04:36:58.908Z,82.82
2016-10-05T04:37:58.861Z,82.54
2016-10-05T04:38:58.825Z,82.64
2016-10-05T04:39:58.784Z,82.45
2016-10-05T04:40:58.752Z,83.3
2016-10-05T04:41:58.708Z,83.01
2016-10-05T04:42:58.367Z,83.2
2016-10-05T04:43:58.632Z,83.2
2016-10-05T04:44:58.287Z,83.11
2016-10-05T04:45:58.248Z,83.68
2016-10-05T04:46:58.515Z,83.39
2016-10-05T04:47:58.475Z,83.59
2016-10-05T04:48:58.442Z,83.68
2016-10-05T04:49:58.402Z,83.68
2016-10-05T04:50:58.364Z,83.49
2016-10-05T04:51:58.321Z,84.06
2016-10-05T04:52:58.280Z,84.06
2016-10-05T04:53:58.246Z,84.25
2016-10-05T04:54:58.207Z,84.11
2016-10-05T04:55:58.166Z,83.97
2016-10-05T04:56:57.827Z,84.01
2016-10-05T04:57:58.090Z,83.87
2016-10-05T04:58:57.752Z,84.3
2016-10-05T04:59:58.011Z,83.87
2016-10-05T05:00:57.973Z,84.44
2016-10-05T05:01:57.932Z,84.25
2016-10-05T05:02:57.894Z,83.97
2016-10-05T05:03:57.865Z,84.06
2016-10-05T05:04:57.515Z,83.92
2016-10-05T05:05:57.783Z,84.16
2016-10-05T05:06:57.739Z,84.53
2016-10-05T05:07:57.711Z,84.44
2016-10-05T05:08:57.661Z,84.34
2016-10-05T05:09:57.625Z,84.44
2016-10-05T05:10:57.288Z,84.06
2016-10-05T05:11:57.548Z,84.16
2016-10-05T05:12:57.505Z,84.01
2016-10-05T05:13:57.467Z,84.21
2016-10-05T05:14:57.433Z,84.4
2016-10-05T05:15:57.391Z,84.01
2016-10-05T05:16:57.351Z,84.21
2016-10-05T05:17:57.319Z,84.3
2016-10-05T05:18:56.974Z,84.21
2016-10-05T05:19:57.235Z,84.59
2016-10-05T05:20:57.200Z,84.3
2016-10-05T05:21:57.162Z,84.3
2016-10-05T05:22:56.818Z,84.59
2016-10-05T05:23:57.079Z,84.3
2016-10-05T05:24:57.044Z,84.3
2016-10-05T05:25:57.004Z,84.21
2016-10-05T05:26:56.965Z,84.3
2016-10-05T05:27:56.625Z,84.3
2016-10-05T05:28:56.889Z,84.3
2016-10-05T05:29:56.847Z,83.73
2016-10-05T05:30:56.810Z,84.3
2016-10-05T05:31:56.786Z,83.92
2016-10-05T05:32:56.733Z,83.92
2016-10-05T05:33:56.694Z,84.11
2016-10-05T05:34:56.653Z,84.21
2016-10-05T05:35:56.618Z,84.11
2016-10-05T05:36:56.577Z,83.45
2016-10-05T05:37:56.539Z,83.45
2016-10-05T05:38:56.501Z,83.36
2016-10-05T05:39:56.458Z,83.36
2016-10-05T05:40:56.122Z,83.36
2016-10-05T05:41:56.382Z,83.49
2016-10-05T05:42:56.351Z,82.64
2016-10-05T05:43:56.308Z,81.02
2016-10-05T05:44:56.265Z,79.69
2016-10-05T05:45:56.233Z,78.97
2016-10-05T05:46:56.195Z,77.73
2016-10-05T05:47:56.154Z,76.25
2016-10-05T05:48:56.116Z,75.21
2016-10-05T05:49:56.071Z,73.88
2016-10-05T05:50:56.036Z,73.72
2016-10-05T05:51:55.998Z,72.86
2016-10-05T05:52:55.963Z,70.68
2016-10-05T05:53:55.923Z,69.85
2016-10-05T05:54:55.582Z,69.76
2016-10-05T05:55:55.849Z,67.99
2016-10-05T05:56:55.807Z,66.56
2016-10-05T05:57:55.768Z,65.51
2016-10-05T05:58:55.734Z,65.23
2016-10-05T05:59:55.393Z,64.4
2016-10-05T06:00:55.661Z,63.83
2016-10-05T06:01:55.628Z,63.39
2016-10-05T06:02:55.607Z,61.96
2016-10-05T06:03:55.250Z,60.55
2016-10-05T06:04:55.512Z,60.17
2016-10-05T06:05:55.479Z,59.89
2016-10-05T06:06:55.442Z,59.03
2016-10-05T06:07:55.402Z,58.39
2016-10-05T06:08:55.366Z,57.53
2016-10-05T06:09:55.329Z,57.24
2016-10-05T06:10:54.992Z,55.46
2016-10-05T06:11:55.258Z,55.18
2016-10-05T06:12:55.222Z,54.34
2016-10-05T06:13:54.882Z,52.72
2016-10-05T06:14:55.152Z,52.65
2016-10-05T06:15:54.808Z,51.79
2016-10-05T06:16:55.080Z,51.03
2016-10-05T06:17:55.040Z,50.38
2016-10-05T06:18:54.704Z,49.8
2016-10-05T06:19:54.970Z,49.62
2016-10-05T06:20:54.636Z,48.97
2016-10-05T06:21:54.600Z,48.02
2016-10-05T06:22:54.876Z,47.08
2016-10-05T06:23:54.833Z,45.74
2016-10-05T06:24:54.497Z,45.74
2016-10-05T06:25:54.767Z,45.84
2016-10-05T06:26:54.730Z,46.41
2016-10-05T06:27:54.693Z,46.03
2016-10-05T06:28:54.661Z,45.74
2016-10-05T06:29:54.326Z,45.84
2016-10-05T06:30:54.291Z,46.87
2016-10-05T06:31:54.558Z,47.06
2016-10-05T06:32:54.224Z,46.87
2016-10-05T06:33:54.494Z,47.42
2016-10-05T06:34:54.458Z,47.42
2016-10-05T06:35:54.433Z,46.96
2016-10-05T06:36:54.394Z,45.74
2016-10-05T06:37:54.057Z,44.52
2016-10-05T06:38:54.331Z,43.68
2016-10-05T06:39:54.301Z,43.66
2016-10-05T06:40:54.267Z,43.76
2016-10-05T06:41:54.233Z,43.1
2016-10-05T06:42:54.201Z,42.24
2016-10-05T06:43:53.874Z,41.4
2016-10-05T06:44:54.141Z,40.83
2016-10-05T06:45:54.113Z,39.79
2016-10-05T06:46:54.072Z,38.37
2016-10-05T06:47:54.037Z,38.01
2016-10-05T06:48:54.011Z,37.53
2016-10-05T06:49:53.978Z,36.66
2016-10-05T06:50:53.947Z,35.64
2016-10-05T06:51:53.616Z,33.93
2016-10-05T06:52:53.884Z,33.45
2016-10-05T06:53:53.855Z,33.45
2016-10-05T06:54:53.518Z,32.79
2016-10-05T06:55:53.795Z,33.36
2016-10-05T06:56:53.761Z,32.87
2016-10-05T06:57:53.729Z,33.26
2016-10-05T06:58:53.705Z,32.78
2016-10-05T07:03:48.469Z,29.2
2016-10-05T07:04:48.434Z,28.63
2016-10-05T07:05:48.403Z,27.57
2016-10-05T07:06:48.404Z,27.49
2016-10-05T07:07:48.347Z,26.72
2016-10-05T07:08:48.019Z,26.06
2016-10-05T07:09:48.289Z,25.67
2016-10-05T07:10:48.258Z,26.15
2016-10-05T07:11:47.939Z,26.04
2016-10-05T07:12:48.206Z,25.95
2016-10-05T07:13:48.176Z,26.72
2016-10-05T07:14:48.147Z,27
2016-10-05T07:15:48.114Z,26.51
2016-10-05T07:16:48.089Z,26.33
2016-10-05T07:17:48.061Z,26.14
2016-10-05T07:18:48.031Z,25.75
2016-10-05T07:19:48.006Z,24.41
2016-10-05T07:20:47.976Z,24.81
2016-10-05T07:21:47.647Z,24.51
2016-10-05T07:22:47.625Z,25.18
2016-10-05T07:23:47.590Z,25.56
2016-10-05T07:24:47.864Z,25.56
2016-10-05T07:25:47.841Z,25.93
2016-10-05T07:26:47.508Z,26.12
2016-10-05T07:27:47.477Z,25.84
2016-10-05T07:28:47.753Z,25.74
2016-10-05T07:29:47.725Z,25.18
2016-10-05T07:30:47.394Z,24.32
2016-10-05T07:31:47.674Z,23.85
2016-10-05T07:32:47.341Z,23.46
2016-10-05T07:33:47.616Z,23.56
2016-10-05T07:34:47.286Z,23.18
2016-10-05T07:35:47.562Z,22.89
2016-10-05T07:36:47.536Z,23.28
2016-10-05T07:37:47.505Z,22.42
2016-10-05T07:38:47.174Z,23.57
2016-10-05T07:39:47.453Z,24.33
2016-10-05T07:40:47.423Z,23.65
2016-10-05T07:41:47.398Z,23.57
2016-10-05T07:42:47.069Z,23.28
2016-10-05T07:43:47.043Z,22.6
2016-10-05T07:44:47.317Z,22.81
2016-10-05T07:45:47.293Z,22.22
2016-10-05T07:46:46.962Z,22.99
2016-10-05T07:47:47.234Z,22.52
2016-10-05T07:48:47.210Z,22.61
2016-10-05T07:49:47.184Z,22.31
2016-10-05T07:50:47.154Z,23.36
2016-10-05T07:51:47.128Z,23.08
2016-10-05T07:52:47.103Z,22.8
2016-10-05T07:53:47.077Z,23.08
2016-10-05T07:54:47.048Z,22.42
2016-10-05T07:55:47.025Z,22.13
2016-10-05T07:56:46.996Z,21.36
2016-10-05T07:57:46.970Z,21.56
2016-10-05T07:58:46.942Z,21.37
2016-10-05T07:59:46.911Z,21.37
2016-10-05T08:00:46.886Z,21.27
2016-10-05T08:01:46.861Z,21.27
2016-10-05T08:02:46.829Z,21.17
2016-10-05T08:03:46.802Z,21.27
2016-10-05T08:04:46.471Z,21.84
2016-10-05T08:05:46.449Z,22.13
2016-10-05T08:06:46.721Z,21.45
2016-10-05T08:07:46.392Z,20.98
2016-10-05T08:08:46.671Z,21.55
2016-10-05T08:09:46.340Z,22.12
2016-10-05T08:10:46.614Z,21.44
2016-10-05T08:11:46.586Z,21.25
2016-10-05T08:12:46.559Z,22.59
2016-10-05T08:13:46.234Z,22.29
2016-10-05T08:14:46.509Z,22.87
2016-10-05T08:15:46.484Z,22.19
2016-10-05T08:16:46.453Z,22.19
2016-10-05T08:17:46.426Z,22.29
2016-10-05T08:18:46.399Z,22.77
2016-10-05T08:19:46.392Z,23.07
2016-10-05T08:20:46.347Z,22.2
2016-10-05T08:21:46.322Z,21.44
2016-10-05T08:22:46.293Z,20.59
2016-10-05T08:23:46.270Z,20.03
2016-10-05T08:24:46.239Z,19.74
2016-10-05T08:25:46.212Z,19.35
2016-10-05T08:26:46.187Z,19.83
2016-10-05T08:27:46.163Z,19.92
2016-10-05T08:28:46.139Z,19.63
2016-10-05T08:29:46.111Z,19.73
2016-10-05T08:30:46.083Z,20.49
2016-10-05T08:31:45.755Z,20.87
2016-10-05T08:32:46.032Z,20.49
2016-10-05T08:33:46.006Z,20.59
2016-10-05T08:34:45.981Z,20.78
2016-10-05T08:35:45.651Z,20.49
2016-10-05T08:36:45.625Z,20.01
2016-10-05T08:37:45.602Z,18.39
2016-10-05T08:38:45.878Z,18.01
2016-10-05T08:39:45.850Z,19.06
2016-10-05T08:40:45.824Z,20.31
2016-10-05T08:41:45.798Z,20.96
2016-10-05T08:42:45.773Z,20.96
2016-10-05T08:43:45.748Z,21.04
2016-10-05T08:44:45.416Z,20.95
2016-10-05T08:45:45.698Z,21.04
2016-10-05T08:46:45.666Z,20.86
2016-10-05T08:47:45.642Z,20.59
2016-10-05T08:48:45.316Z,20.2
2016-10-05T08:49:45.590Z,19.7
2016-10-05T08:50:45.564Z,20.38
2016-10-05T08:51:45.540Z,19.51
2016-10-05T08:52:45.513Z,20.47
2016-10-05T08:53:45.492Z,20.56
2016-10-05T08:54:45.462Z,20.56
2016-10-05T08:55:45.141Z,20.56
2016-10-05T08:56:45.409Z,20.08
2016-10-05T08:57:45.080Z,20.19
2016-10-05T08:58:45.357Z,20.18
2016-10-05T08:59:45.332Z,19.8
2016-10-05T09:00:45.309Z,19.8
2016-10-05T09:01:45.279Z,20.47
2016-10-05T09:02:45.254Z,20.46
2016-10-05T09:03:45.226Z,21.31
2016-10-05T09:04:44.899Z,22.19
2016-10-05T09:05:45.177Z,21.99
2016-10-05T09:06:45.157Z,21.42
2016-10-05T09:07:45.122Z,21.04
2016-10-05T09:08:45.095Z,21.23
2016-10-05T09:09:45.075Z,21.51
2016-10-05T09:10:44.741Z,21.04
2016-10-05T09:11:44.716Z,20.18
2016-10-05T09:12:44.990Z,19.42
2016-10-05T09:13:44.970Z,19.13
2016-10-05T09:14:44.942Z,18.76
2016-10-05T09:15:44.929Z,18.38
2016-10-05T09:16:44.883Z,18.08
2016-10-05T09:17:44.861Z,18.08
2016-10-05T09:18:44.835Z,18.85
2016-10-05T09:19:44.806Z,18.55
2016-10-05T09:20:44.785Z,19.03
2016-10-05T09:21:44.760Z,18.85
2016-10-05T09:22:44.736Z,18.65
2016-10-05T09:23:44.709Z,18.65
2016-10-05T09:24:44.677Z,19.42
2016-10-05T09:25:44.658Z,19.89
2016-10-05T09:26:44.630Z,21.13
2016-10-05T09:27:44.609Z,21.31
2016-10-05T09:28:44.578Z,21.7
2016-10-05T09:29:44.555Z,21.31
2016-10-05T09:30:44.529Z,21.48
2016-10-05T09:31:44.496Z,21.4
2016-10-05T09:32:44.477Z,22.17
2016-10-05T09:33:44.444Z,22.08
2016-10-05T09:34:44.423Z,21.5
2016-10-05T09:35:44.094Z,22.46
2016-10-05T09:36:44.365Z,22.92
2016-10-05T09:37:44.044Z,22.44
2016-10-05T09:38:44.320Z,22.45
2016-10-05T09:39:43.991Z,22.55
2016-10-05T09:40:43.961Z,22.08
2016-10-05T09:41:44.240Z,21.4
2016-10-05T09:42:43.911Z,20.83
2016-10-05T09:43:44.189Z,22.27
2016-10-05T09:44:44.159Z,22.26
2016-10-05T09:45:44.132Z,21.4
2016-10-05T09:46:44.105Z,20.56
2016-10-05T09:47:44.080Z,20.18
2016-10-05T09:48:43.753Z,19.7
2016-10-05T09:49:44.029Z,19.7
2016-10-05T09:50:44.006Z,19.23
2016-10-05T09:51:43.994Z,19.13
2016-10-05T09:52:43.960Z,19.33
2016-10-05T09:53:43.928Z,19.51
2016-10-05T09:54:43.902Z,18.85
2016-10-05T09:55:43.878Z,18.66
2016-10-05T09:56:43.857Z,17.89
2016-10-05T09:57:43.526Z,17.69
2016-10-05T09:58:43.803Z,17.8
2016-10-05T09:59:43.777Z,17.89
2016-10-05T10:00:43.750Z,17.79
2016-10-05T10:01:43.726Z,17.79
2016-10-05T10:02:43.707Z,18.47
2016-10-05T10:03:43.680Z,17.68
2016-10-05T10:04:43.651Z,18.17
2016-10-05T10:05:43.629Z,18.93
2016-10-05T10:06:43.299Z,18.54
2016-10-05T10:07:43.579Z,18.73
2016-10-05T10:08:43.556Z,18.63
2016-10-05T10:09:43.525Z,18.93
2016-10-05T10:10:43.501Z,17.97
2016-10-05T10:11:43.475Z,18.35
2016-10-05T10:12:43.452Z,19.02
2016-10-05T10:13:43.125Z,18.73
2016-10-05T10:14:43.411Z,18.82
2016-10-05T10:15:43.377Z,18.72
2016-10-05T10:16:43.049Z,18.53
2016-10-05T10:17:43.326Z,18.62
2016-10-05T10:18:43.300Z,18.72
2016-10-05T10:19:43.276Z,17.66
2016-10-05T10:20:43.251Z,17.66
2016-10-05T10:21:43.225Z,17.85
2016-10-05T10:22:42.894Z,18.23
2016-10-05T10:23:43.174Z,18.42
2016-10-05T10:24:42.844Z,18.13
2016-10-05T10:25:43.129Z,17.85
2016-10-05T10:26:43.105Z,17.08
2016-10-05T10:27:43.072Z,17.56
2016-10-05T10:28:42.745Z,18.33
2016-10-05T10:29:43.017Z,18.71
2016-10-05T10:30:42.994Z,18.62
2016-10-05T10:31:42.972Z,17.95
2016-10-05T10:32:42.939Z,18.04
2016-10-05T10:33:42.613Z,18.14
2016-10-05T10:34:42.591Z,17.95
2016-10-05T10:35:42.864Z,17.95
2016-10-05T10:36:42.837Z,17.95
2016-10-05T10:37:42.815Z,18.14
2016-10-05T10:38:42.800Z,17.84
2016-10-05T10:39:42.779Z,17.65
2016-10-05T10:40:42.743Z,18.79
2016-10-05T10:41:42.711Z,19.65
2016-10-05T10:42:42.690Z,20.23
2016-10-05T10:43:42.656Z,20.8
2016-10-05T10:44:42.635Z,21.47
2016-10-05T10:45:42.613Z,22.8
2016-10-05T10:46:42.581Z,22.69
2016-10-05T10:47:42.559Z,23.65
2016-10-05T10:48:42.527Z,23.63
2016-10-05T10:49:42.501Z,24.4
2016-10-05T10:50:42.176Z,24.98
2016-10-05T10:51:42.447Z,25.93
2016-10-05T10:52:42.418Z,26.31
2016-10-05T10:53:42.089Z,26.59
2016-10-05T10:54:42.364Z,27.36
2016-10-05T10:55:42.332Z,26.78
2016-10-05T10:56:42.310Z,25.35
2016-10-05T10:57:42.290Z,24.79
2016-10-05T10:58:42.254Z,24.6
2016-10-05T10:59:42.229Z,23.73
2016-10-05T11:00:42.199Z,24.61
2016-10-05T11:01:41.877Z,24.22
2016-10-05T11:02:41.843Z,24.99
2016-10-05T11:03:41.817Z,24.32
2016-10-05T11:04:42.101Z,24.79
2016-10-05T11:05:42.064Z,24.99
2016-10-05T11:06:42.036Z,24.7
2016-10-05T11:07:42.008Z,23.85
2016-10-05T11:08:41.996Z,24.61
2016-10-05T11:09:41.951Z,24.9
2016-10-05T11:10:41.923Z,25.46
2016-10-05T11:11:41.894Z,26.97
2016-10-05T11:12:41.869Z,27.72
2016-10-05T11:13:41.535Z,28
2016-10-05T11:14:41.810Z,28.46
2016-10-05T11:15:41.780Z,29.22
2016-10-05T11:16:41.750Z,29.2
2016-10-05T11:17:41.723Z,29.58
2016-10-05T11:18:41.693Z,29.58
2016-10-05T11:19:41.661Z,29.58
2016-10-05T11:20:41.632Z,30.43
2016-10-05T11:21:41.602Z,31.27
2016-10-05T11:22:41.573Z,32.14
2016-10-05T11:23:41.539Z,32.42
2016-10-05T11:24:41.521Z,32.62
2016-10-05T11:25:41.479Z,33.56
2016-10-05T11:26:41.447Z,33.46
2016-10-05T11:27:41.416Z,34.22
2016-10-05T11:28:41.382Z,34.42
2016-10-05T11:29:41.353Z,35.35
2016-10-05T11:30:41.321Z,35.35
2016-10-05T11:31:41.286Z,35.93
2016-10-05T11:32:40.954Z,36.77
2016-10-05T11:33:41.222Z,37.73
2016-10-05T11:34:40.891Z,37.53
2016-10-05T11:35:40.859Z,37.51
2016-10-05T11:36:41.126Z,37.8
2016-10-05T11:37:41.096Z,37.71
2016-10-05T11:38:41.060Z,37.99
2016-10-05T11:39:41.027Z,38.18
2016-10-05T11:40:40.994Z,38.56
2016-10-05T11:41:40.958Z,38.54
2016-10-05T11:42:40.625Z,38.73
2016-10-05T11:43:40.590Z,39.12
2016-10-05T11:44:40.559Z,39.98
2016-10-05T11:45:40.825Z,39.98
2016-10-05T11:46:40.492Z,40.34
2016-10-05T11:47:40.756Z,40.34
2016-10-05T11:48:40.726Z,40.53
2016-10-05T11:49:40.690Z,40.05
2016-10-05T11:50:40.664Z,39.39
2016-10-05T11:51:40.622Z,39.29
2016-10-05T11:52:40.586Z,39.76
2016-10-05T11:53:40.552Z,40.15
2016-10-05T11:54:40.213Z,40.44
2016-10-05T11:55:40.485Z,40.63
2016-10-05T11:56:40.448Z,41.48
2016-10-05T11:57:40.411Z,41.39
2016-10-05T11:58:40.077Z,41.58
2016-10-05T11:59:40.345Z,41.58
2016-10-05T12:00:40.306Z,41.1
2016-10-05T12:01:40.272Z,41.2
2016-10-05T12:02:40.237Z,41.2
2016-10-05T12:03:39.899Z,40.72
2016-10-05T12:04:40.167Z,40.63
2016-10-05T12:05:40.134Z,40.05
2016-10-05T12:06:40.098Z,39.86
2016-10-05T12:07:39.760Z,40.05
2016-10-05T12:08:40.025Z,39.86
2016-10-05T12:09:39.990Z,39.86
2016-10-05T12:10:39.954Z,39.76
2016-10-05T12:11:39.615Z,40.05
2016-10-05T12:12:39.890Z,40.24
2016-10-05T12:13:39.860Z,40.05
2016-10-05T12:14:39.814Z,40.15
2016-10-05T12:15:39.479Z,40.15
2016-10-05T12:16:39.765Z,40.34
2016-10-05T12:17:39.709Z,39.86
2016-10-05T12:18:39.373Z,39.86
2016-10-05T12:19:39.334Z,39.76
2016-10-05T12:20:39.602Z,40.05
2016-10-05T12:21:39.568Z,40.53
2016-10-05T12:22:39.533Z,41.2
2016-10-05T12:23:39.497Z,41
2016-10-05T12:24:39.465Z,41.48
2016-10-05T12:25:39.424Z,41.2
2016-10-05T12:26:39.387Z,40.63
2016-10-05T12:27:39.351Z,41.08
2016-10-05T12:28:39.328Z,40.99
2016-10-05T12:29:39.281Z,41.46
2016-10-05T12:30:38.944Z,41.65
2016-10-05T12:31:39.211Z,41.36
2016-10-05T12:32:39.180Z,41.17
2016-10-05T12:33:38.838Z,40.99
2016-10-05T12:34:39.107Z,40.22
2016-10-05T12:35:39.071Z,39.94
2016-10-05T12:36:39.030Z,40.32
2016-10-05T12:37:38.999Z,39.75
2016-10-05T12:38:38.961Z,39.84
2016-10-05T12:39:38.628Z,40.6
2016-10-05T12:40:38.890Z,40.6
2016-10-05T12:41:38.860Z,41.08
2016-10-05T12:42:38.820Z,40.22
2016-10-05T12:43:38.785Z,41.17
2016-10-05T12:44:38.748Z,41.27
2016-10-05T12:45:38.712Z,41.94
2016-10-05T12:46:38.375Z,42.51
2016-10-05T12:47:38.342Z,42.22
2016-10-05T12:48:38.606Z,42.41
2016-10-05T12:49:38.569Z,42.22
2016-10-05T12:50:38.531Z,42.53
2016-10-05T12:51:38.497Z,41.48
2016-10-05T12:52:38.462Z,40.34
2016-10-05T12:53:38.125Z,39.95
2016-10-05T12:54:38.091Z,38.24
2016-10-05T12:55:38.054Z,37.86
2016-10-05T12:56:38.017Z,38.05
2016-10-05T12:57:38.287Z,37.57
2016-10-05T12:58:38.246Z,37.95
2016-10-05T12:59:38.214Z,38.05